Time;durP1;ratioP1;P1;durP2;ratioP2;P2;SDS_P1;SDS_P2;PMS_P1;PMS_P2;Temp;Humidity;BMP_temperature;BMP_pressure;BME280_temperature;BME280_humidity;BME280_pressure;Samples;Min_cycle;Max_cycle;Signal;HPM_P1;HPM_P2
2022/04/07 00:00:43;;;;;;;2.15;1.70;;;10.60;99.90;;;;;;6061178;23;20636;-83
2022/04/07 00:03:10;;;;;;;1.60;1.50;;;10.60;99.90;;;;;;6058927;23;20219;-83
2022/04/07 00:05:37;;;;;;;1.30;1.20;;;10.50;99.90;;;;;;6061516;23;20217;-83
2022/04/07 00:08:05;;;;;;;1.20;1.10;;;10.60;99.90;;;;;;6060231;23;20714;-83
2022/04/07 00:10:33;;;;;;;1.50;1.40;;;10.60;99.90;;;;;;6060556;23;20520;-83
2022/04/07 00:13:01;;;;;;;1.52;1.23;;;10.60;99.90;;;;;;6060590;23;20610;-83
2022/04/07 00:15:28;;;;;;;2.50;1.35;;;10.60;99.90;;;;;;6062064;23;20222;-84
2022/04/07 00:17:55;;;;;;;1.50;1.40;;;10.60;99.90;;;;;;6062197;23;20694;-84
2022/04/07 00:20:22;;;;;;;1.30;1.20;;;10.60;99.90;;;;;;6062939;23;20196;-83
2022/04/07 00:22:50;;;;;;;1.40;1.30;;;10.60;99.90;;;;;;6060930;23;20192;-83
2022/04/07 00:25:18;;;;;;;1.25;1.15;;;10.60;99.90;;;;;;6062281;23;20200;-83
2022/04/07 00:27:45;;;;;;;1.38;1.27;;;10.60;99.90;;;;;;6062845;23;20227;-83
2022/04/07 00:30:15;;;;;;;1.40;1.30;;;10.60;99.90;;;;;;6062440;23;20275;-83
2022/04/07 00:32:43;;;;;;;1.60;1.50;;;10.60;99.90;;;;;;6063165;23;20206;-83
2022/04/07 00:35:10;;;;;;;1.30;1.20;;;10.50;99.90;;;;;;6062129;23;20635;-82
2022/04/07 00:37:38;;;;;;;1.60;1.50;;;10.50;99.90;;;;;;6061541;23;20212;-83
2022/04/07 00:40:07;;;;;;;1.80;1.63;;;10.50;99.90;;;;;;6063058;23;20238;-82
2022/04/07 00:42:34;;;;;;;1.55;1.35;;;10.50;99.90;;;;;;6062588;23;20191;-84
2022/04/07 00:45:02;;;;;;;1.10;1.00;;;10.50;99.90;;;;;;6062380;23;20199;-83
2022/04/07 00:47:30;;;;;;;2.25;1.25;;;10.50;99.90;;;;;;6060991;23;20225;-83
2022/04/07 00:49:57;;;;;;;1.33;1.23;;;10.60;99.90;;;;;;6062482;23;20712;-83
2022/04/07 00:52:24;;;;;;;1.50;1.30;;;10.50;99.90;;;;;;6062791;23;20191;-83
2022/04/07 00:54:51;;;;;;;1.38;1.25;;;10.50;99.90;;;;;;6062734;23;20226;-83
2022/04/07 00:57:19;;;;;;;1.20;1.10;;;10.50;99.90;;;;;;6062493;23;20308;-85
2022/04/07 00:59:47;;;;;;;1.40;1.30;;;10.60;99.90;;;;;;6063003;23;20198;-83
2022/04/07 01:02:14;;;;;;;2.00;1.20;;;10.60;99.90;;;;;;6055896;23;20192;-83
2022/04/07 01:04:42;;;;;;;1.23;1.13;;;10.60;99.90;;;;;;6062760;23;20273;-83
2022/04/07 01:07:09;;;;;;;1.20;1.10;;;10.50;99.90;;;;;;6048690;23;20219;-83
2022/04/07 01:09:37;;;;;;;1.85;1.23;;;10.50;99.90;;;;;;6047476;23;20212;-82
2022/04/07 01:12:05;;;;;;;1.20;1.10;;;10.50;99.90;;;;;;6061224;23;20204;-83
2022/04/07 01:14:32;;;;;;;1.05;0.95;;;10.50;99.90;;;;;;6062426;23;20191;-82
2022/04/07 01:16:59;;;;;;;1.10;0.90;;;10.50;99.90;;;;;;6060965;23;20219;-83
2022/04/07 01:19:26;;;;;;;1.30;0.90;;;10.50;99.90;;;;;;6062201;23;20722;-83
2022/04/07 01:21:55;;;;;;;0.90;0.80;;;10.50;99.90;;;;;;6062464;23;20194;-83
2022/04/07 01:24:30;;;;;;;1.00;0.88;;;10.50;99.90;;;;;;6062981;23;20253;-82
2022/04/07 01:26:58;;;;;;;1.15;1.00;;;10.40;99.90;;;;;;6062341;23;20305;-82
2022/04/07 01:29:26;;;;;;;0.90;0.90;;;10.50;99.90;;;;;;6065709;23;20195;-83
2022/04/07 01:31:52;;;;;;;0.80;0.70;;;10.40;99.90;;;;;;6064567;23;20204;-83
2022/04/07 01:34:20;;;;;;;0.80;0.80;;;10.40;99.90;;;;;;6063696;23;20227;-83
2022/04/07 01:36:49;;;;;;;1.00;0.90;;;10.30;99.90;;;;;;6065243;23;20234;-83
2022/04/07 01:39:21;;;;;;;1.10;0.88;;;10.30;99.90;;;;;;6064983;23;20196;-83
2022/04/07 01:41:52;;;;;;;0.98;0.88;;;10.30;99.90;;;;;;6061557;23;20270;-82
2022/04/07 01:44:20;;;;;;;1.00;0.88;;;10.20;99.90;;;;;;6041409;23;20615;-83
2022/04/07 01:46:48;;;;;;;1.00;1.00;;;10.20;99.90;;;;;;6062485;23;20226;-83
2022/04/07 01:49:16;;;;;;;1.13;0.93;;;10.10;99.90;;;;;;6061983;23;20214;-83
2022/04/07 01:51:45;;;;;;;0.90;0.80;;;10.10;99.90;;;;;;6053608;23;20609;-83
2022/04/07 01:54:14;;;;;;;0.85;0.85;;;10.00;99.90;;;;;;6061381;23;20192;-83
2022/04/07 01:56:43;;;;;;;1.17;0.80;;;10.00;99.90;;;;;;6061524;23;20285;-83
2022/04/07 01:59:12;;;;;;;1.30;0.80;;;10.00;99.90;;;;;;6062374;23;20633;-83
2022/04/07 02:01:39;;;;;;;0.85;0.80;;;9.90;99.90;;;;;;6062241;23;20195;-83
2022/04/07 02:04:06;;;;;;;1.65;0.70;;;9.90;99.90;;;;;;6062368;23;20211;-84
2022/04/07 02:06:33;;;;;;;0.88;0.88;;;9.90;99.90;;;;;;6055653;23;20217;-83
2022/04/07 02:09:00;;;;;;;0.77;0.77;;;9.90;99.90;;;;;;6054601;23;20298;-83
2022/04/07 02:11:28;;;;;;;0.80;0.80;;;10.00;99.90;;;;;;6062651;23;20188;-84
2022/04/07 02:13:54;;;;;;;0.65;0.63;;;10.00;99.90;;;;;;6062285;23;20202;-83
2022/04/07 02:16:23;;;;;;;0.70;0.70;;;10.00;99.90;;;;;;6062376;23;20282;-83
2022/04/07 02:18:50;;;;;;;0.77;0.77;;;10.00;99.90;;;;;;6061863;23;20247;-83
2022/04/07 02:21:17;;;;;;;0.73;0.70;;;10.10;99.90;;;;;;6061254;23;20277;-82
2022/04/07 02:23:44;;;;;;;0.80;0.60;;;10.10;99.90;;;;;;6062226;23;20268;-83
2022/04/07 02:26:12;;;;;;;0.80;0.73;;;10.20;99.90;;;;;;6062070;23;20302;-83
2022/04/07 02:28:39;;;;;;;0.77;0.70;;;10.20;99.90;;;;;;6055779;23;20222;-83
2022/04/07 02:31:06;;;;;;;0.75;0.63;;;10.20;99.90;;;;;;6061241;23;20187;-82
2022/04/07 02:33:35;;;;;;;1.40;0.70;;;10.20;99.90;;;;;;6061066;23;20191;-83
2022/04/07 02:36:02;;;;;;;1.33;1.05;;;10.20;99.90;;;;;;6060637;23;20221;-83
2022/04/07 02:38:29;;;;;;;0.80;0.70;;;10.20;99.90;;;;;;6062087;23;20192;-82
2022/04/07 02:40:56;;;;;;;0.88;0.77;;;10.20;99.90;;;;;;6056204;23;20726;-82
2022/04/07 02:43:23;;;;;;;1.33;0.73;;;10.10;99.90;;;;;;6048762;23;20270;-82
2022/04/07 02:45:50;;;;;;;1.55;0.80;;;9.90;99.90;;;;;;6061542;23;20624;-84
2022/04/07 02:48:17;;;;;;;1.00;0.85;;;9.70;99.90;;;;;;6061385;23;20224;-83
2022/04/07 02:50:45;;;;;;;1.35;0.80;;;9.50;99.90;;;;;;6061564;23;20553;-82
2022/04/07 02:53:13;;;;;;;1.73;0.70;;;9.40;99.90;;;;;;6052328;23;20281;-82
2022/04/07 02:55:41;;;;;;;1.20;1.00;;;9.30;99.90;;;;;;6062167;23;20190;-82
2022/04/07 02:58:08;;;;;;;0.70;0.70;;;9.20;99.90;;;;;;6060464;23;20189;-83
2022/04/07 03:00:35;;;;;;;1.02;0.93;;;9.20;99.90;;;;;;6062398;23;20218;-82
2022/04/07 03:03:02;;;;;;;0.80;0.80;;;9.10;99.90;;;;;;6061875;23;20590;-82
2022/04/07 03:05:29;;;;;;;1.30;0.98;;;9.10;99.90;;;;;;6057616;23;20663;-83
2022/04/07 03:07:58;;;;;;;0.85;0.85;;;9.00;99.90;;;;;;6061408;23;20210;-82
2022/04/07 03:10:26;;;;;;;1.10;1.00;;;9.00;99.90;;;;;;6051075;23;20663;-82
2022/04/07 03:12:52;;;;;;;1.60;1.00;;;8.90;99.90;;;;;;6055364;23;20216;-82
2022/04/07 03:15:19;;;;;;;1.20;1.10;;;9.00;99.90;;;;;;6042157;23;20227;-82
2022/04/07 03:17:46;;;;;;;0.80;0.80;;;8.90;99.90;;;;;;6061429;23;20189;-82
2022/04/07 03:20:13;;;;;;;1.00;0.70;;;8.90;99.90;;;;;;6061818;23;20251;-82
2022/04/07 03:22:40;;;;;;;0.80;0.80;;;8.90;99.90;;;;;;6062340;23;20185;-81
2022/04/07 03:25:09;;;;;;;1.33;0.90;;;8.90;99.90;;;;;;6061098;23;20203;-82
2022/04/07 03:27:36;;;;;;;1.02;0.90;;;8.90;99.90;;;;;;6053912;23;20202;-82
2022/04/07 03:30:04;;;;;;;1.42;0.80;;;9.00;99.90;;;;;;6038753;23;20221;-82
2022/04/07 03:32:31;;;;;;;1.75;0.90;;;9.00;99.90;;;;;;6061370;23;20185;-83
2022/04/07 03:34:58;;;;;;;1.00;0.90;;;9.00;99.90;;;;;;6060946;23;20261;-83
2022/04/07 03:37:25;;;;;;;0.80;0.80;;;9.10;99.90;;;;;;6061120;23;20680;-82
2022/04/07 03:39:52;;;;;;;1.85;0.90;;;9.10;99.90;;;;;;6061768;23;20686;-82
2022/04/07 03:42:21;;;;;;;1.30;1.00;;;9.20;99.90;;;;;;6061533;23;20566;-82
2022/04/07 03:44:48;;;;;;;1.08;0.90;;;9.30;99.90;;;;;;6060375;23;20269;-82
2022/04/07 03:47:15;;;;;;;1.23;0.70;;;9.30;99.90;;;;;;6061424;23;20214;-82
2022/04/07 03:49:42;;;;;;;1.05;0.95;;;9.40;99.90;;;;;;6062349;23;20212;-82
2022/04/07 03:52:09;;;;;;;1.30;1.20;;;9.40;99.90;;;;;;6062993;23;20292;-82
2022/04/07 03:54:36;;;;;;;0.80;0.80;;;9.40;99.90;;;;;;6062854;23;20213;-82
2022/04/07 03:57:03;;;;;;;1.02;0.95;;;9.50;99.90;;;;;;6062631;23;20407;-83
2022/04/07 03:59:35;;;;;;;1.30;0.90;;;9.50;99.90;;;;;;6063139;23;20595;-83
2022/04/07 04:02:02;;;;;;;1.38;1.15;;;9.60;99.90;;;;;;6062537;23;20276;-82
2022/04/07 04:04:29;;;;;;;1.15;0.73;;;9.60;99.90;;;;;;6062671;23;20199;-83
2022/04/07 04:06:56;;;;;;;1.65;0.80;;;9.60;99.90;;;;;;6061131;23;20708;-81
2022/04/07 04:09:23;;;;;;;1.10;0.77;;;9.70;99.90;;;;;;6062882;23;20225;-82
2022/04/07 04:11:50;;;;;;;1.50;0.90;;;9.70;99.90;;;;;;6055472;23;20186;-82
2022/04/07 04:14:17;;;;;;;0.88;0.80;;;9.60;99.90;;;;;;6058956;23;20274;-83
2022/04/07 04:16:45;;;;;;;3.65;0.73;;;9.60;99.90;;;;;;6051674;23;20216;-82
2022/04/07 04:19:12;;;;;;;1.27;1.17;;;9.60;99.90;;;;;;6052462;23;20219;-82
2022/04/07 04:21:39;;;;;;;1.00;0.90;;;9.60;99.90;;;;;;6059822;23;20198;-83
2022/04/07 04:24:07;;;;;;;0.95;0.85;;;9.60;99.90;;;;;;6054843;23;20200;-85
2022/04/07 04:26:34;;;;;;;1.00;0.80;;;9.60;99.90;;;;;;6059139;23;20239;-82
2022/04/07 04:29:00;;;;;;;1.13;0.90;;;9.60;99.90;;;;;;6054920;23;20778;-83
2022/04/07 04:31:28;;;;;;;0.80;0.70;;;9.60;99.90;;;;;;6052249;23;20535;-83
2022/04/07 04:33:56;;;;;;;0.88;0.85;;;9.70;99.90;;;;;;6053515;23;20272;-82
2022/04/07 04:36:24;;;;;;;1.55;1.20;;;9.70;99.90;;;;;;6045894;23;20242;-83
2022/04/07 04:38:51;;;;;;;1.10;1.00;;;9.70;99.90;;;;;;6051524;23;20546;-83
2022/04/07 04:41:18;;;;;;;1.25;0.95;;;9.80;99.90;;;;;;6042491;23;20196;-84
2022/04/07 04:43:45;;;;;;;0.90;0.80;;;9.80;99.90;;;;;;6045381;23;20226;-85
2022/04/07 04:46:12;;;;;;;1.25;1.00;;;9.80;99.90;;;;;;6050705;23;20565;-85
2022/04/07 04:48:39;;;;;;;1.30;1.20;;;9.80;99.90;;;;;;6043187;23;20255;-81
2022/04/07 04:51:07;;;;;;;2.50;1.08;;;9.80;99.90;;;;;;6055242;23;20214;-83
2022/04/07 04:53:34;;;;;;;0.98;0.90;;;9.80;99.90;;;;;;6051716;23;20221;-84
2022/04/07 04:56:01;;;;;;;1.42;1.00;;;9.80;99.90;;;;;;6044439;23;20265;-81
2022/04/07 04:58:29;;;;;;;1.08;0.98;;;9.80;99.90;;;;;;6051863;23;20304;-81
2022/04/07 05:00:57;;;;;;;1.27;1.00;;;9.80;99.90;;;;;;6047113;23;20202;-83
2022/04/07 05:03:24;;;;;;;1.10;0.98;;;9.90;99.90;;;;;;6056481;23;20191;-85
2022/04/07 05:05:51;;;;;;;1.00;0.90;;;9.90;99.90;;;;;;6050111;23;20713;-78
2022/04/07 05:08:20;;;;;;;1.40;1.02;;;9.90;99.90;;;;;;6060526;23;20717;-87
2022/04/07 05:10:47;;;;;;;1.88;0.93;;;9.90;99.90;;;;;;6050702;23;20200;-81
2022/04/07 05:13:14;;;;;;;0.90;0.80;;;10.00;99.90;;;;;;6054689;23;20186;-84
2022/04/07 05:15:41;;;;;;;1.88;0.90;;;10.00;99.90;;;;;;6052215;23;20217;-85
2022/04/07 05:18:08;;;;;;;1.92;0.90;;;9.90;99.90;;;;;;6045719;23;20277;-85
2022/04/07 05:20:36;;;;;;;1.60;0.90;;;9.90;99.90;;;;;;6047194;23;20208;-84
2022/04/07 05:23:03;;;;;;;1.13;1.02;;;9.80;99.90;;;;;;6045194;23;20191;-84
2022/04/07 05:25:32;;;;;;;1.10;1.00;;;9.80;99.90;;;;;;6044655;23;20246;-85
2022/04/07 05:27:59;;;;;;;1.48;0.90;;;9.90;99.90;;;;;;6038749;23;20233;-84
2022/04/07 05:30:26;;;;;;;1.10;0.85;;;9.90;99.90;;;;;;6051198;23;20334;-83
2022/04/07 05:32:53;;;;;;;1.40;0.90;;;9.90;99.90;;;;;;6054748;23;20188;-83
2022/04/07 05:35:20;;;;;;;1.50;0.98;;;9.90;99.90;;;;;;6056951;23;20213;-84
2022/04/07 05:37:47;;;;;;;1.08;0.98;;;9.80;99.90;;;;;;6056969;23;20940;-83
2022/04/07 05:40:14;;;;;;;1.00;0.90;;;9.70;99.90;;;;;;6041969;23;20286;-82
2022/04/07 05:42:42;;;;;;;1.30;0.85;;;9.80;99.90;;;;;;6051626;23;20219;-83
2022/04/07 05:45:09;;;;;;;1.10;1.00;;;9.90;99.90;;;;;;6052118;23;20206;-84
2022/04/07 05:47:40;;;;;;;1.10;0.90;;;9.90;99.90;;;;;;6047178;23;20663;-83
2022/04/07 05:50:08;;;;;;;0.70;0.60;;;9.90;99.90;;;;;;6058240;23;20715;-82
2022/04/07 05:52:36;;;;;;;2.60;0.85;;;10.00;99.90;;;;;;6049174;23;20186;-83
2022/04/07 05:55:03;;;;;;;2.20;0.70;;;10.00;99.90;;;;;;6054733;23;20208;-93
2022/04/07 05:57:31;;;;;;;1.35;0.88;;;10.10;99.90;;;;;;6056560;23;20187;-82
2022/04/07 06:00:05;;;;;;;0.80;0.80;;;10.10;99.90;;;;;;6045502;23;20223;-83
2022/04/07 06:02:32;;;;;;;0.80;0.80;;;10.20;99.90;;;;;;6035193;23;20191;-83
2022/04/07 06:04:59;;;;;;;0.77;0.70;;;10.30;99.90;;;;;;6039065;23;20295;-83
2022/04/07 06:07:26;;;;;;;1.08;0.73;;;10.40;99.90;;;;;;6046255;23;20278;-82
2022/04/07 06:09:53;;;;;;;1.30;0.82;;;10.50;99.90;;;;;;6045136;23;20683;-82
2022/04/07 06:12:20;;;;;;;1.35;0.80;;;10.70;99.90;;;;;;6033720;23;20260;-83
2022/04/07 06:14:47;;;;;;;1.13;0.68;;;10.80;99.90;;;;;;6043871;23;20231;-83
2022/04/07 06:17:16;;;;;;;0.75;0.75;;;10.80;99.90;;;;;;6045489;23;20197;-83
2022/04/07 06:19:43;;;;;;;0.68;0.60;;;10.80;99.90;;;;;;6043146;23;20193;-83
2022/04/07 06:22:11;;;;;;;0.70;0.60;;;10.90;99.90;;;;;;6042000;23;20319;-83
2022/04/07 06:24:38;;;;;;;0.63;0.57;;;10.90;99.90;;;;;;6043099;23;20217;-83
2022/04/07 06:27:05;;;;;;;1.42;0.60;;;11.00;99.90;;;;;;6037787;23;20199;-83
2022/04/07 06:29:32;;;;;;;0.98;0.60;;;11.00;99.90;;;;;;6040469;23;20250;-84
2022/04/07 06:31:59;;;;;;;0.70;0.60;;;11.00;99.90;;;;;;6042715;23;20259;-84
2022/04/07 06:34:28;;;;;;;0.80;0.60;;;11.00;99.90;;;;;;6035357;23;20215;-84
2022/04/07 06:36:55;;;;;;;0.85;0.60;;;10.90;99.90;;;;;;6040664;23;20191;-84
2022/04/07 06:39:22;;;;;;;0.95;0.70;;;11.00;99.90;;;;;;6057314;23;20205;-84
2022/04/07 06:41:49;;;;;;;0.95;0.60;;;10.90;99.90;;;;;;6048868;23;20182;-83
2022/04/07 06:44:19;;;;;;;0.60;0.60;;;11.00;99.90;;;;;;6042772;23;20190;-83
2022/04/07 06:46:45;;;;;;;1.40;0.60;;;11.00;99.90;;;;;;6045962;23;20278;-83
2022/04/07 06:49:13;;;;;;;1.15;0.70;;;11.00;99.90;;;;;;6058322;23;20759;-83
2022/04/07 06:51:41;;;;;;;0.50;0.50;;;11.00;99.90;;;;;;6054086;23;20188;-84
2022/04/07 06:54:08;;;;;;;0.80;0.60;;;11.00;99.90;;;;;;6050363;23;20211;-81
2022/04/07 06:56:35;;;;;;;1.27;0.63;;;11.00;99.90;;;;;;6043810;23;20298;-81
2022/04/07 06:59:02;;;;;;;1.88;0.77;;;11.00;99.90;;;;;;6043423;23;20191;-82
2022/04/07 07:01:29;;;;;;;0.82;0.57;;;11.00;99.90;;;;;;6049172;23;20224;-81
2022/04/07 07:03:56;;;;;;;1.27;0.70;;;11.00;99.90;;;;;;6057102;23;20247;-81
2022/04/07 07:06:23;;;;;;;1.35;0.70;;;10.80;99.90;;;;;;6059681;23;20241;-81
2022/04/07 07:08:52;;;;;;;0.70;0.55;;;11.00;99.90;;;;;;6036961;23;20236;-81
2022/04/07 07:11:19;;;;;;;1.77;0.70;;;11.10;99.90;;;;;;6052669;23;20226;-81
2022/04/07 07:13:46;;;;;;;1.80;0.60;;;11.10;99.90;;;;;;6051541;23;20888;-82
2022/04/07 07:16:13;;;;;;;3.72;1.17;;;11.20;99.90;;;;;;6049457;23;20291;-81
2022/04/07 07:18:42;;;;;;;1.40;0.50;;;11.30;99.90;;;;;;6059593;23;20521;-81
2022/04/07 07:21:10;;;;;;;0.90;0.60;;;11.40;99.90;;;;;;6043488;23;20527;-81
2022/04/07 07:23:37;;;;;;;0.60;0.50;;;11.30;99.90;;;;;;6048677;23;20650;-81
2022/04/07 07:26:05;;;;;;;0.70;0.60;;;11.40;99.90;;;;;;6049988;23;20755;-81
2022/04/07 07:28:32;;;;;;;1.02;0.60;;;11.40;99.90;;;;;;6047154;23;20191;-81
2022/04/07 07:31:00;;;;;;;1.40;0.52;;;11.40;99.90;;;;;;6035921;23;20212;-81
2022/04/07 07:33:27;;;;;;;0.80;0.50;;;11.50;99.90;;;;;;6047365;23;20266;-82
2022/04/07 07:35:54;;;;;;;0.70;0.50;;;11.50;99.90;;;;;;6050693;23;20240;-82
2022/04/07 07:38:21;;;;;;;1.00;0.52;;;11.60;99.90;;;;;;6060068;23;20197;-81
2022/04/07 07:40:48;;;;;;;0.57;0.50;;;11.60;99.90;;;;;;6051278;23;20192;-82
2022/04/07 07:43:17;;;;;;;0.90;0.70;;;11.60;99.90;;;;;;6066660;23;20204;-80
2022/04/07 07:45:46;;;;;;;1.35;0.60;;;11.60;99.90;;;;;;6048869;23;20306;-81
2022/04/07 07:48:13;;;;;;;1.95;0.50;;;11.60;99.90;;;;;;6041146;23;20195;-80
2022/04/07 07:50:41;;;;;;;0.80;0.50;;;11.60;99.90;;;;;;6038677;23;20208;-79
2022/04/07 07:53:09;;;;;;;0.75;0.52;;;11.60;99.90;;;;;;6041544;23;20190;-81
2022/04/07 07:55:37;;;;;;;1.10;0.60;;;11.70;99.90;;;;;;6032372;23;20271;-81
2022/04/07 07:58:05;;;;;;;1.20;0.70;;;11.80;99.90;;;;;;6048116;23;20189;-81
2022/04/07 08:00:33;;;;;;;0.80;0.50;;;11.80;99.90;;;;;;6047988;23;20185;-81
2022/04/07 08:03:00;;;;;;;1.10;0.50;;;11.70;99.90;;;;;;6049731;23;20188;-81
2022/04/07 08:05:27;;;;;;;0.90;0.52;;;11.70;99.90;;;;;;6040870;23;20229;-82
2022/04/07 08:07:54;;;;;;;0.90;0.57;;;11.80;99.90;;;;;;6048963;23;20177;-80
2022/04/07 08:10:21;;;;;;;1.13;0.60;;;11.70;99.90;;;;;;6043640;23;20216;-80
2022/04/07 08:12:47;;;;;;;0.95;0.40;;;11.70;99.90;;;;;;6051598;23;20184;-80
2022/04/07 08:15:14;;;;;;;0.82;0.70;;;11.70;99.90;;;;;;6037719;23;20228;-82
2022/04/07 08:17:43;;;;;;;1.88;0.80;;;11.70;99.90;;;;;;6038320;23;20181;-82
2022/04/07 08:20:11;;;;;;;1.13;0.60;;;11.80;99.90;;;;;;6033606;23;20213;-81
2022/04/07 08:22:38;;;;;;;3.05;0.75;;;11.90;99.90;;;;;;6039322;23;20191;-81
2022/04/07 08:25:06;;;;;;;1.33;0.70;;;12.00;99.90;;;;;;6039240;23;20909;-81
2022/04/07 08:27:33;;;;;;;3.50;0.70;;;12.00;99.90;;;;;;6044382;23;20189;-82
2022/04/07 08:30:00;;;;;;;2.85;0.70;;;12.10;99.90;;;;;;6049509;23;20204;-81
2022/04/07 08:32:27;;;;;;;0.95;0.70;;;12.20;99.90;;;;;;6048334;23;20595;-81
2022/04/07 08:34:57;;;;;;;2.13;0.73;;;12.40;99.90;;;;;;6045496;23;20223;-81
2022/04/07 08:37:25;;;;;;;4.18;0.80;;;12.40;99.90;;;;;;6054715;23;20194;-80
2022/04/07 08:39:53;;;;;;;0.80;0.75;;;12.40;99.90;;;;;;6048588;23;20193;-81
2022/04/07 08:42:20;;;;;;;1.48;0.80;;;12.20;99.90;;;;;;6043259;23;20264;-83
2022/04/07 08:44:47;;;;;;;0.77;0.60;;;11.80;99.90;;;;;;6062485;23;20218;-81
2022/04/07 08:47:17;;;;;;;1.27;0.57;;;11.50;99.90;;;;;;6045490;23;20182;-82
2022/04/07 08:49:44;;;;;;;1.95;0.90;;;11.50;99.90;;;;;;6043885;23;20213;-82
2022/04/07 08:52:12;;;;;;;2.17;0.60;;;11.70;99.90;;;;;;6039957;23;21233;-81
2022/04/07 08:54:39;;;;;;;2.35;0.70;;;11.90;99.90;;;;;;6040559;23;20291;-80
2022/04/07 08:57:06;;;;;;;0.80;0.70;;;12.10;99.90;;;;;;6042343;23;20199;-82
2022/04/07 08:59:33;;;;;;;0.70;0.70;;;12.20;99.90;;;;;;6046385;23;20194;-81
2022/04/07 09:02:02;;;;;;;1.30;0.52;;;12.20;99.90;;;;;;6050729;23;20177;-81
2022/04/07 09:04:30;;;;;;;0.60;0.50;;;12.30;99.90;;;;;;6049283;23;20215;-82
2022/04/07 09:06:58;;;;;;;0.90;0.60;;;12.40;99.90;;;;;;6043233;23;20182;-82
2022/04/07 09:09:26;;;;;;;1.35;0.60;;;12.40;99.90;;;;;;6035832;23;20222;-83
2022/04/07 09:11:57;;;;;;;0.85;0.50;;;12.40;99.90;;;;;;6052756;23;20223;-82
2022/04/07 09:14:24;;;;;;;0.93;0.50;;;12.50;99.90;;;;;;6039091;23;20224;-81
2022/04/07 09:16:55;;;;;;;0.50;0.40;;;12.60;99.90;;;;;;6041826;23;20193;-82
2022/04/07 09:19:22;;;;;;;1.00;0.50;;;12.60;99.90;;;;;;6044402;23;20192;-86
2022/04/07 09:22:05;;;;;;;1.15;0.60;;;12.80;99.90;;;;;;6042534;23;20307;-82
2022/04/07 09:24:35;;;;;;;1.70;0.57;;;12.70;99.90;;;;;;6034801;23;21393;-82
2022/04/07 09:27:05;;;;;;;0.80;0.50;;;12.70;99.90;;;;;;6039872;23;20655;-81
2022/04/07 09:29:40;;;;;;;1.08;0.50;;;12.70;99.90;;;;;;6051924;23;20193;-82
2022/04/07 09:32:19;;;;;;;0.98;0.60;;;12.60;99.90;;;;;;6040593;23;20238;-83
2022/04/07 09:34:46;;;;;;;1.38;0.60;;;12.40;99.90;;;;;;6039017;23;21255;-82
2022/04/07 09:37:14;;;;;;;0.80;0.70;;;12.30;99.90;;;;;;6045160;23;20925;-82
2022/04/07 09:39:44;;;;;;;0.88;0.50;;;12.30;99.90;;;;;;6037216;23;20189;-81
2022/04/07 09:42:22;;;;;;;0.77;0.50;;;12.20;99.90;;;;;;6046613;23;20264;-81
2022/04/07 09:44:54;;;;;;;0.60;0.60;;;11.90;99.90;;;;;;6043172;23;20287;-81
2022/04/07 09:47:22;;;;;;;0.70;0.50;;;11.70;99.90;;;;;;6058705;23;20194;-81
2022/04/07 09:49:49;;;;;;;1.00;0.65;;;11.60;99.90;;;;;;6049329;23;20579;-82
2022/04/07 09:52:20;;;;;;;0.80;0.60;;;11.50;99.90;;;;;;6060206;23;20260;-81
2022/04/07 09:54:52;;;;;;;3.90;0.55;;;11.50;99.90;;;;;;6042322;23;20285;-83
2022/04/07 09:57:20;;;;;;;0.60;0.50;;;11.80;99.90;;;;;;6051503;23;20184;-81
2022/04/07 09:59:48;;;;;;;0.90;0.60;;;12.10;99.90;;;;;;6049430;23;20189;-81
2022/04/07 10:02:17;;;;;;;2.58;0.60;;;12.20;99.90;;;;;;6047666;23;20300;-82
2022/04/07 10:04:45;;;;;;;1.10;0.52;;;12.40;99.90;;;;;;6047836;23;20300;-81
2022/04/07 10:07:12;;;;;;;0.80;0.65;;;12.50;99.90;;;;;;6054334;23;20189;-82
2022/04/07 10:09:41;;;;;;;1.05;0.50;;;12.60;99.90;;;;;;6057206;23;20247;-81
2022/04/07 10:12:11;;;;;;;0.75;0.57;;;12.70;99.90;;;;;;6046157;23;20223;-82
2022/04/07 10:14:39;;;;;;;0.73;0.60;;;12.70;99.90;;;;;;6047138;23;20207;-83
2022/04/07 10:17:10;;;;;;;1.45;0.60;;;12.80;99.90;;;;;;6053943;23;20223;-80
2022/04/07 10:19:43;;;;;;;0.60;0.52;;;12.90;99.90;;;;;;6048124;23;20224;-78
2022/04/07 10:22:37;;;;;;;1.85;0.52;;;13.00;99.90;;;;;;6064068;23;20195;-79
2022/04/07 10:25:06;;;;;;;0.60;0.60;;;13.10;99.90;;;;;;6036866;23;20737;-78
2022/04/07 10:27:41;;;;;;;0.80;0.60;;;13.20;99.90;;;;;;6041838;23;20181;-82
2022/04/07 10:30:11;;;;;;;1.65;0.50;;;13.30;99.90;;;;;;6041253;23;20540;-85
2022/04/07 10:32:42;;;;;;;1.80;0.50;;;13.20;99.90;;;;;;6039747;23;20189;-83
2022/04/07 10:35:11;;;;;;;1.98;0.50;;;13.20;99.90;;;;;;6040006;23;20232;-82
2022/04/07 10:37:44;;;;;;;0.90;0.50;;;13.10;99.90;;;;;;6053232;23;20186;-83
2022/04/07 10:40:37;;;;;;;0.55;0.47;;;13.20;99.90;;;;;;6046466;23;20204;-85
2022/04/07 10:43:21;;;;;;;1.08;0.60;;;13.10;99.90;;;;;;6051454;23;20181;-87
2022/04/07 10:45:53;;;;;;;0.80;0.60;;;13.10;99.90;;;;;;6041811;23;20189;-88
2022/04/07 10:48:27;;;;;;;3.30;0.70;;;13.20;99.90;;;;;;6051897;23;20216;-87
2022/04/07 10:50:56;;;;;;;1.55;0.70;;;13.60;99.90;;;;;;6059146;23;20292;-86
2022/04/07 10:53:27;;;;;;;1.83;0.70;;;13.80;99.90;;;;;;6053912;23;20204;-86
2022/04/07 10:56:06;;;;;;;0.60;0.45;;;13.90;99.90;;;;;;6061683;23;20184;-87
2022/04/07 10:58:52;;;;;;;1.40;0.55;;;13.90;99.90;;;;;;6056330;23;20679;-86
2022/04/07 11:01:53;;;;;;;0.70;0.50;;;13.90;99.90;;;;;;6051252;23;20258;-85
2022/04/07 11:04:42;;;;;;;1.63;0.50;;;14.10;99.90;;;;;;6039060;23;20708;-85
2022/04/07 11:07:19;;;;;;;1.00;0.60;;;14.20;99.90;;;;;;6073947;23;20312;-86
2022/04/07 11:09:53;;;;;;;1.17;0.50;;;14.40;99.90;;;;;;6048429;23;20238;-88
2022/04/07 11:12:24;;;;;;;0.73;0.50;;;14.50;99.90;;;;;;6058348;23;20471;-85
2022/04/07 11:14:54;;;;;;;1.00;0.50;;;14.30;99.90;;;;;;6041079;23;20496;-85
2022/04/07 11:17:28;;;;;;;1.87;0.60;;;14.20;99.90;;;;;;6046840;23;20188;-85
2022/04/07 11:20:05;;;;;;;0.83;0.60;;;14.20;99.90;;;;;;6043940;23;20523;-85
2022/04/07 11:22:51;;;;;;;0.80;0.50;;;14.00;99.90;;;;;;6045038;23;20463;-85
2022/04/07 11:25:23;;;;;;;0.80;0.70;;;14.00;99.90;;;;;;6055508;23;20220;-86
2022/04/07 11:28:13;;;;;;;0.80;0.60;;;14.00;99.90;;;;;;6039055;23;20184;-86
2022/04/07 11:30:46;;;;;;;0.88;0.50;;;14.10;99.90;;;;;;6043874;23;20199;-88
2022/04/07 11:33:28;;;;;;;3.57;0.70;;;14.20;99.90;;;;;;6046801;23;20211;-88
2022/04/07 11:36:37;;;;;;;0.93;0.50;;;14.30;99.90;;;;;;6054385;23;20445;-86
2022/04/07 11:39:04;;;;;;;1.73;0.50;;;14.10;99.90;;;;;;6053840;23;20888;-88
2022/04/07 11:41:41;;;;;;;0.70;0.50;;;14.10;99.90;;;;;;6045089;23;20204;-83
2022/04/07 11:44:11;;;;;;;0.65;0.50;;;14.20;99.90;;;;;;6046177;23;20216;-86
2022/04/07 11:46:40;;;;;;;0.60;0.40;;;14.10;99.90;;;;;;6048927;23;20249;-87
2022/04/07 11:49:07;;;;;;;0.60;0.50;;;14.10;99.90;;;;;;6051755;23;20204;-87
2022/04/07 11:51:37;;;;;;;0.93;0.43;;;14.20;99.90;;;;;;6052996;23;20274;-87
2022/04/07 11:54:05;;;;;;;0.50;0.50;;;14.40;99.90;;;;;;6048820;23;20202;-85
2022/04/07 11:56:33;;;;;;;1.37;0.70;;;14.60;99.90;;;;;;6055251;23;20504;-84
2022/04/07 11:59:03;;;;;;;0.90;0.50;;;14.60;99.90;;;;;;6051824;23;20458;-78
2022/04/07 12:01:31;;;;;;;0.63;0.47;;;14.60;99.90;;;;;;6048332;23;20488;-84
2022/04/07 12:04:01;;;;;;;1.27;0.47;;;14.60;99.90;;;;;;6045702;23;20459;-81
2022/04/07 12:06:30;;;;;;;2.80;1.23;;;14.60;99.90;;;;;;6045467;23;20449;-81
2022/04/07 12:08:57;;;;;;;0.60;0.40;;;14.60;99.90;;;;;;6046546;23;20449;-85
2022/04/07 12:11:27;;;;;;;1.43;0.60;;;14.50;99.90;;;;;;6046784;23;20503;-87
2022/04/07 12:13:56;;;;;;;1.07;0.80;;;14.50;99.90;;;;;;6038141;23;20551;-86
2022/04/07 12:16:25;;;;;;;0.60;0.40;;;14.30;99.90;;;;;;6045694;23;20519;-87
2022/04/07 12:18:55;;;;;;;1.07;0.40;;;14.10;99.90;;;;;;6042552;23;20182;-86
2022/04/07 12:21:25;;;;;;;0.60;0.40;;;14.00;99.90;;;;;;6053994;23;20440;-87
2022/04/07 12:24:08;;;;;;;0.80;0.50;;;14.10;99.90;;;;;;6048290;23;20214;-86
2022/04/07 12:26:42;;;;;;;1.40;0.50;;;13.90;99.90;;;;;;6066283;23;20197;-87
2022/04/07 12:29:14;;;;;;;0.75;0.50;;;13.90;99.90;;;;;;6055594;23;20196;-87
2022/04/07 12:31:41;;;;;;;1.20;0.50;;;13.90;99.90;;;;;;6049493;23;20200;-86
2022/04/07 12:34:09;;;;;;;2.50;0.70;;;14.10;99.90;;;;;;6052067;23;20926;-87
2022/04/07 12:36:39;;;;;;;0.55;0.40;;;14.30;99.90;;;;;;6046190;23;20523;-89
2022/04/07 12:39:08;;;;;;;1.23;0.50;;;14.10;99.90;;;;;;6047315;23;20264;-87
2022/04/07 12:41:38;;;;;;;0.60;0.50;;;14.00;99.90;;;;;;6066593;23;20191;-88
2022/04/07 12:44:08;;;;;;;1.63;0.47;;;13.90;99.90;;;;;;6040582;23;20206;-88
2022/04/07 12:46:50;;;;;;;2.78;0.77;;;13.90;99.90;;;;;;6060896;23;20527;-89
2022/04/07 12:49:26;;;;;;;1.33;0.63;;;13.80;99.90;;;;;;6043997;23;20181;-89
2022/04/07 12:52:06;;;;;;;1.60;0.50;;;13.90;99.90;;;;;;6055732;23;20215;-89
2022/04/07 12:54:34;;;;;;;0.70;0.50;;;13.90;99.90;;;;;;6058961;23;20209;-87
2022/04/07 12:57:10;;;;;;;0.60;0.40;;;14.00;99.90;;;;;;6050890;23;20189;-87
2022/04/07 12:59:38;;;;;;;1.33;1.13;;;14.20;99.90;;;;;;6046942;23;21014;-87